createdAt,value
2017-07-09T00:00:06.033Z,19.90
2017-07-09T00:02:34.365Z,19.90
2017-07-09T00:05:02.724Z,19.80
2017-07-09T00:07:31.056Z,19.80
2017-07-09T00:09:59.433Z,19.90
2017-07-09T00:12:27.760Z,19.90
2017-07-09T00:14:56.108Z,19.90
2017-07-09T00:17:24.432Z,20.00
2017-07-09T00:19:52.772Z,20.00
2017-07-09T00:22:21.087Z,20.00
2017-07-09T00:24:49.416Z,20.00
2017-07-09T00:27:17.761Z,20.00
2017-07-09T00:29:46.081Z,20.00
2017-07-09T00:32:14.420Z,20.10
2017-07-09T00:34:42.776Z,20.00
2017-07-09T00:37:11.121Z,20.10
2017-07-09T00:39:39.437Z,20.10
2017-07-09T00:42:07.797Z,20.10
2017-07-09T00:44:36.117Z,20.10
2017-07-09T00:47:04.437Z,20.10
2017-07-09T00:49:32.782Z,20.10
2017-07-09T00:52:01.112Z,20.10
2017-07-09T00:54:29.452Z,20.10
2017-07-09T00:56:57.781Z,20.20
2017-07-09T00:59:26.171Z,20.20
2017-07-09T01:01:54.492Z,20.20
2017-07-09T01:04:22.828Z,20.10
2017-07-09T01:06:51.148Z,20.00
2017-07-09T01:09:19.473Z,20.00
2017-07-09T01:11:47.821Z,20.00
2017-07-09T01:14:16.136Z,20.00
2017-07-09T01:16:44.485Z,20.00
2017-07-09T01:19:12.812Z,20.00
2017-07-09T01:21:41.168Z,19.90
2017-07-09T01:24:09.496Z,19.90
2017-07-09T01:26:37.846Z,19.90
2017-07-09T01:29:06.168Z,19.90
2017-07-09T01:31:33.744Z,19.90
2017-07-09T01:34:02.081Z,19.90
2017-07-09T01:36:30.405Z,19.80
2017-07-09T01:39:04.583Z,19.80
2017-07-09T01:41:33.003Z,19.80
2017-07-09T01:44:01.337Z,19.80
2017-07-09T01:46:29.658Z,19.90
2017-07-09T01:48:58.008Z,19.80
2017-07-09T01:51:26.340Z,19.80
2017-07-09T01:53:54.661Z,19.80
2017-07-09T01:56:23.072Z,19.80
2017-07-09T01:58:50.627Z,19.80
2017-07-09T02:01:18.968Z,19.80
2017-07-09T02:03:47.288Z,19.80
2017-07-09T02:06:15.628Z,19.80
2017-07-09T02:08:43.950Z,19.80
2017-07-09T02:11:12.297Z,19.70
2017-07-09T02:13:40.653Z,19.70
2017-07-09T02:16:08.973Z,19.70
2017-07-09T02:18:37.327Z,19.70
2017-07-09T02:21:05.647Z,19.70
2017-07-09T02:23:33.990Z,19.70
2017-07-09T02:26:02.316Z,19.70
2017-07-09T02:28:29.910Z,19.70
2017-07-09T02:30:58.237Z,19.60
2017-07-09T02:33:26.564Z,19.60
2017-07-09T02:35:54.908Z,19.50
2017-07-09T02:38:23.227Z,19.40
2017-07-09T02:40:51.571Z,19.40
2017-07-09T02:43:19.891Z,19.30
2017-07-09T02:45:48.268Z,19.20
2017-07-09T02:48:16.589Z,19.10
2017-07-09T02:50:44.955Z,19.10
2017-07-09T02:53:13.276Z,19.00
2017-07-09T02:55:41.596Z,18.90
2017-07-09T02:58:09.939Z,18.90
2017-07-09T03:00:38.294Z,18.80
2017-07-09T03:03:06.672Z,18.70
2017-07-09T03:05:34.999Z,18.60
2017-07-09T03:08:03.345Z,18.50
2017-07-09T03:10:31.666Z,18.40
2017-07-09T03:13:00.015Z,18.30
2017-07-09T03:15:28.343Z,18.30
2017-07-09T03:17:56.668Z,18.20
2017-07-09T03:20:25.007Z,18.10
2017-07-09T03:22:53.325Z,18.10
2017-07-09T03:25:21.668Z,18.10
2017-07-09T03:27:50.007Z,18.10
2017-07-09T03:30:18.339Z,18.20
2017-07-09T03:32:46.658Z,18.20
2017-07-09T03:35:15.062Z,18.20
2017-07-09T03:37:43.389Z,18.20
2017-07-09T03:40:11.787Z,18.30
2017-07-09T03:42:40.125Z,18.30
2017-07-09T03:45:08.450Z,18.30
2017-07-09T03:47:36.793Z,18.40
2017-07-09T03:50:05.115Z,18.50
2017-07-09T03:52:33.462Z,18.50
2017-07-09T03:55:01.802Z,18.60
2017-07-09T03:57:30.159Z,18.60
2017-07-09T03:59:58.497Z,18.60
2017-07-09T04:02:26.821Z,18.70
2017-07-09T04:04:55.174Z,18.70
2017-07-09T04:07:23.492Z,18.70
2017-07-09T04:09:51.832Z,18.70
2017-07-09T04:12:20.158Z,18.70
2017-07-09T04:14:48.492Z,18.70
2017-07-09T04:17:16.818Z,18.70
2017-07-09T04:19:45.160Z,18.80
2017-07-09T04:22:13.471Z,18.80
2017-07-09T04:24:41.787Z,18.80
2017-07-09T04:27:10.126Z,18.80
2017-07-09T04:29:38.446Z,18.70
2017-07-09T04:32:06.786Z,18.60
2017-07-09T04:34:35.103Z,18.70
2017-07-09T04:37:03.455Z,18.70
2017-07-09T04:39:31.775Z,18.70
2017-07-09T04:42:00.116Z,18.70
2017-07-09T04:44:28.431Z,18.70
2017-07-09T04:46:56.751Z,18.80
2017-07-09T04:49:25.105Z,18.90
2017-07-09T04:51:53.431Z,18.90
2017-07-09T04:54:21.769Z,19.00
2017-07-09T04:56:50.080Z,19.00
2017-07-09T04:59:18.420Z,19.10
2017-07-09T05:01:46.732Z,19.10
2017-07-09T05:04:15.085Z,19.10
2017-07-09T05:06:43.405Z,19.10
2017-07-09T05:09:11.806Z,19.20
2017-07-09T05:11:40.225Z,19.30
2017-07-09T05:14:08.571Z,19.30
2017-07-09T05:16:36.921Z,19.40
2017-07-09T05:19:05.236Z,19.50
2017-07-09T05:21:33.571Z,19.50
2017-07-09T05:24:01.897Z,19.60
2017-07-09T05:26:30.286Z,19.60
2017-07-09T05:28:58.613Z,19.70
2017-07-09T05:31:26.940Z,19.70
2017-07-09T05:33:55.292Z,19.70
2017-07-09T05:36:23.619Z,19.80
2017-07-09T05:38:52.001Z,19.80
2017-07-09T05:41:20.326Z,19.80
2017-07-09T05:43:48.672Z,19.70
2017-07-09T05:46:16.996Z,19.70
2017-07-09T05:48:45.337Z,19.70
2017-07-09T05:51:13.691Z,19.70
2017-07-09T05:53:42.065Z,19.80
2017-07-09T05:56:10.410Z,19.80
2017-07-09T05:58:38.735Z,19.80
2017-07-09T06:01:07.076Z,19.90
2017-07-09T06:03:35.405Z,19.90
2017-07-09T06:06:03.765Z,20.00
2017-07-09T06:08:32.081Z,20.00
2017-07-09T06:11:00.605Z,20.00
2017-07-09T06:13:28.920Z,20.00
2017-07-09T06:15:57.265Z,19.90
2017-07-09T06:18:25.611Z,20.00
2017-07-09T06:20:53.993Z,20.00
2017-07-09T06:23:22.360Z,20.20
2017-07-09T06:25:50.672Z,20.20
2017-07-09T06:28:19.174Z,20.30
2017-07-09T06:30:47.522Z,20.40
2017-07-09T06:33:15.856Z,20.50
2017-07-09T06:35:44.206Z,20.60
2017-07-09T06:38:12.527Z,20.70
2017-07-09T06:40:40.870Z,20.80
2017-07-09T06:43:09.188Z,20.90
2017-07-09T06:45:37.525Z,21.00
2017-07-09T06:48:05.850Z,21.00
2017-07-09T06:50:34.204Z,21.10
2017-07-09T06:53:02.521Z,21.20
2017-07-09T06:55:30.841Z,21.30
2017-07-09T06:57:59.186Z,21.50
2017-07-09T07:00:27.517Z,21.70
2017-07-09T07:02:55.859Z,21.90
2017-07-09T07:05:23.414Z,21.80
2017-07-09T07:07:51.754Z,22.00
2017-07-09T07:10:20.066Z,22.00
2017-07-09T07:12:48.410Z,21.80
2017-07-09T07:15:16.734Z,21.80
2017-07-09T07:17:45.086Z,21.90
2017-07-09T07:20:13.420Z,22.10
2017-07-09T07:22:41.739Z,22.30
2017-07-09T07:25:10.077Z,22.30
2017-07-09T07:27:38.458Z,22.40
2017-07-09T07:30:06.771Z,22.60
2017-07-09T07:32:35.090Z,22.80
2017-07-09T07:35:03.433Z,23.00
2017-07-09T07:37:31.755Z,23.10
2017-07-09T07:40:00.071Z,23.10
2017-07-09T07:42:28.409Z,23.20
2017-07-09T07:44:56.758Z,23.40
2017-07-09T07:47:25.109Z,23.70
2017-07-09T07:49:53.433Z,23.80
2017-07-09T07:52:21.769Z,23.90
2017-07-09T07:54:50.085Z,24.00
2017-07-09T07:57:18.468Z,24.00
2017-07-09T07:59:46.783Z,24.10
2017-07-09T08:02:15.093Z,24.70
2017-07-09T08:04:43.433Z,25.20
2017-07-09T08:07:11.752Z,25.60
2017-07-09T08:09:40.665Z,25.70
2017-07-09T08:12:08.984Z,25.80
2017-07-09T08:14:37.321Z,25.60
2017-07-09T08:17:05.654Z,25.30
2017-07-09T08:19:34.005Z,25.30
2017-07-09T08:22:01.559Z,25.30
2017-07-09T08:24:29.885Z,25.40
2017-07-09T08:26:58.224Z,25.50
2017-07-09T08:29:26.545Z,25.50
2017-07-09T08:31:54.884Z,25.60
2017-07-09T08:34:23.201Z,25.80
2017-07-09T08:36:51.550Z,25.80
2017-07-09T08:39:19.869Z,25.90
2017-07-09T08:41:48.264Z,25.70
2017-07-09T08:44:15.856Z,25.70
2017-07-09T08:46:44.180Z,25.50
2017-07-09T08:49:12.544Z,25.70
2017-07-09T08:51:40.877Z,25.90
2017-07-09T08:54:09.220Z,26.20
2017-07-09T08:56:37.536Z,26.50
2017-07-09T08:59:05.851Z,26.70
2017-07-09T09:01:34.184Z,27.10
2017-07-09T09:04:02.506Z,27.60
2017-07-09T09:06:30.896Z,27.80
2017-07-09T09:08:59.216Z,27.90
2017-07-09T09:11:27.559Z,27.80
2017-07-09T09:13:55.921Z,27.50
2017-07-09T09:16:24.243Z,27.40
2017-07-09T09:18:52.577Z,27.60
2017-07-09T09:21:20.897Z,27.90
2017-07-09T09:23:49.252Z,28.10
2017-07-09T09:26:17.585Z,28.40
2017-07-09T09:28:45.915Z,28.40
2017-07-09T09:31:14.256Z,28.60
2017-07-09T09:33:42.572Z,28.80
2017-07-09T09:36:10.931Z,28.80
2017-07-09T09:38:39.261Z,28.60
2017-07-09T09:41:07.616Z,28.60
2017-07-09T09:43:35.949Z,28.60
2017-07-09T09:46:04.274Z,28.60
2017-07-09T09:48:32.617Z,28.40
2017-07-09T09:51:00.941Z,28.70
2017-07-09T09:53:29.288Z,29.10
2017-07-09T09:55:57.619Z,29.40
2017-07-09T09:58:25.972Z,29.50
2017-07-09T10:00:54.289Z,29.40
2017-07-09T10:03:22.612Z,29.20
2017-07-09T10:05:50.961Z,29.00
2017-07-09T10:08:19.288Z,28.70
2017-07-09T10:10:47.906Z,28.60
2017-07-09T10:13:16.229Z,28.60
2017-07-09T10:15:44.588Z,28.70
2017-07-09T10:18:12.908Z,28.70
2017-07-09T10:20:41.229Z,29.10
2017-07-09T10:23:09.572Z,29.50
2017-07-09T10:25:37.893Z,29.70
2017-07-09T10:28:06.263Z,29.50
2017-07-09T10:30:34.600Z,29.70
2017-07-09T10:33:02.940Z,29.90
2017-07-09T10:35:30.496Z,29.90
2017-07-09T10:37:58.842Z,29.50
2017-07-09T10:40:27.176Z,29.50
2017-07-09T10:42:55.496Z,29.30
2017-07-09T10:45:23.831Z,29.30
2017-07-09T10:47:52.157Z,29.00
2017-07-09T10:50:20.541Z,28.90
2017-07-09T10:52:48.885Z,28.60
2017-07-09T10:55:17.255Z,28.60
2017-07-09T10:57:45.568Z,28.90
2017-07-09T11:00:13.917Z,29.20
2017-07-09T11:02:42.240Z,29.40
2017-07-09T11:05:10.598Z,29.80
2017-07-09T11:07:39.005Z,29.90
2017-07-09T11:10:07.297Z,30.20
2017-07-09T11:12:35.638Z,30.30
2017-07-09T11:15:03.953Z,30.30
2017-07-09T11:17:32.301Z,30.00
2017-07-09T11:20:00.621Z,29.80
2017-07-09T11:22:28.984Z,29.80
2017-07-09T11:24:57.301Z,29.70
2017-07-09T11:27:25.620Z,29.40
2017-07-09T11:29:53.984Z,29.10
2017-07-09T11:32:21.554Z,29.10
2017-07-09T11:34:50.030Z,29.50
2017-07-09T11:37:18.348Z,29.80
2017-07-09T11:39:46.729Z,29.90
2017-07-09T11:42:15.051Z,29.90
2017-07-09T11:44:43.393Z,29.80
2017-07-09T11:47:11.724Z,29.70
2017-07-09T11:49:40.048Z,29.60
2017-07-09T11:52:08.394Z,29.40
2017-07-09T11:54:36.726Z,29.10
2017-07-09T11:57:05.069Z,28.90
2017-07-09T11:59:33.391Z,28.80
2017-07-09T12:02:01.740Z,28.70
2017-07-09T12:04:30.060Z,28.80
2017-07-09T12:06:58.434Z,29.10
2017-07-09T12:09:26.755Z,29.50
2017-07-09T12:11:55.080Z,29.70
2017-07-09T12:14:23.412Z,29.70
2017-07-09T12:16:51.736Z,29.90
2017-07-09T12:19:20.084Z,30.40
2017-07-09T12:21:48.409Z,30.70
2017-07-09T12:24:16.745Z,30.80
2017-07-09T12:26:44.307Z,30.80
2017-07-09T12:29:12.657Z,30.40
2017-07-09T12:31:40.972Z,30.50
2017-07-09T12:34:09.296Z,31.10
2017-07-09T12:36:37.639Z,31.20
2017-07-09T12:39:05.188Z,31.10
2017-07-09T12:41:33.539Z,30.70
2017-07-09T12:44:01.861Z,30.20
2017-07-09T12:46:30.206Z,29.90
2017-07-09T12:48:58.524Z,29.80
2017-07-09T12:51:26.909Z,29.70
2017-07-09T12:53:54.473Z,29.70
2017-07-09T12:56:22.799Z,30.10
2017-07-09T12:58:51.140Z,30.40
2017-07-09T13:01:19.470Z,30.60
2017-07-09T13:03:47.821Z,30.90
2017-07-09T13:06:16.148Z,31.10
2017-07-09T13:08:44.491Z,31.20
2017-07-09T13:11:12.809Z,31.10
2017-07-09T13:13:41.146Z,30.70
2017-07-09T13:16:09.476Z,30.50
2017-07-09T13:18:37.816Z,30.20
2017-07-09T13:21:06.138Z,30.10
2017-07-09T13:23:34.499Z,30.00
2017-07-09T13:26:02.817Z,29.80
2017-07-09T13:28:31.141Z,29.60
2017-07-09T13:30:59.484Z,29.90
2017-07-09T13:33:27.808Z,30.10
2017-07-09T13:35:56.153Z,30.40
2017-07-09T13:38:24.478Z,30.40
2017-07-09T13:40:52.825Z,30.20
2017-07-09T13:43:21.135Z,30.00
2017-07-09T13:45:49.484Z,29.90
2017-07-09T13:48:17.832Z,29.80
2017-07-09T13:50:46.176Z,29.70
2017-07-09T13:53:14.493Z,29.80
2017-07-09T13:55:42.855Z,29.70
2017-07-09T13:58:11.180Z,29.60
2017-07-09T14:00:39.523Z,29.50
2017-07-09T14:03:07.867Z,29.30
2017-07-09T14:05:36.194Z,29.20
2017-07-09T14:08:04.539Z,29.30
2017-07-09T14:10:32.952Z,29.90
2017-07-09T14:13:00.527Z,29.90
2017-07-09T14:15:28.100Z,30.50
2017-07-09T14:17:56.446Z,30.70
2017-07-09T14:20:24.769Z,30.60
2017-07-09T14:22:53.210Z,30.50
2017-07-09T14:25:21.559Z,30.20
2017-07-09T14:27:49.880Z,30.00
2017-07-09T14:30:18.228Z,29.80
2017-07-09T14:32:46.553Z,29.80
2017-07-09T14:35:14.896Z,30.00
2017-07-09T14:37:43.216Z,30.10
2017-07-09T14:40:11.647Z,30.10
2017-07-09T14:42:39.969Z,30.10
2017-07-09T14:45:08.406Z,29.70
2017-07-09T14:47:36.731Z,29.40
2017-07-09T14:50:05.089Z,29.00
2017-07-09T14:52:33.415Z,28.70
2017-07-09T14:55:01.800Z,28.60
2017-07-09T14:57:30.143Z,28.50
2017-07-09T14:59:58.548Z,28.30
2017-07-09T15:02:26.891Z,28.10
2017-07-09T15:04:55.211Z,28.10
2017-07-09T15:07:23.556Z,28.00
2017-07-09T15:09:51.956Z,28.00
2017-07-09T15:12:20.302Z,28.00
2017-07-09T15:14:48.629Z,28.00
2017-07-09T15:17:16.982Z,27.90
2017-07-09T15:19:45.306Z,27.80
2017-07-09T15:22:13.620Z,27.90
2017-07-09T15:24:41.957Z,27.80
2017-07-09T15:27:10.270Z,27.80
2017-07-09T15:29:38.605Z,27.90
2017-07-09T15:32:07.048Z,27.80
2017-07-09T15:34:35.389Z,27.70
2017-07-09T15:37:03.708Z,27.70
2017-07-09T15:39:32.117Z,27.70
2017-07-09T15:42:00.437Z,27.70
2017-07-09T15:44:28.792Z,27.80
2017-07-09T15:46:57.126Z,27.80
2017-07-09T15:49:25.452Z,28.00
2017-07-09T15:51:53.797Z,28.00
2017-07-09T15:54:22.152Z,28.10
2017-07-09T15:56:50.511Z,28.00
2017-07-09T15:59:18.836Z,28.10
2017-07-09T16:01:47.228Z,28.10
2017-07-09T16:04:15.573Z,28.10
2017-07-09T16:06:43.940Z,28.20
2017-07-09T16:09:12.329Z,28.30
2017-07-09T16:11:40.652Z,28.30
2017-07-09T16:14:09.002Z,28.40
2017-07-09T16:16:37.472Z,28.40
2017-07-09T16:19:05.825Z,28.40
2017-07-09T16:21:34.140Z,28.40
2017-07-09T16:24:02.513Z,28.40
2017-07-09T16:26:30.843Z,28.50
2017-07-09T16:28:59.184Z,28.60
2017-07-09T16:31:27.531Z,28.70
2017-07-09T16:33:55.853Z,28.80
2017-07-09T16:36:24.197Z,28.70
2017-07-09T16:38:52.524Z,28.60
2017-07-09T16:41:20.875Z,28.40
2017-07-09T16:43:48.432Z,28.40
2017-07-09T16:46:16.752Z,28.60
2017-07-09T16:48:45.095Z,28.80
2017-07-09T16:51:13.424Z,28.80
2017-07-09T16:53:41.766Z,28.80
2017-07-09T16:56:10.089Z,28.70
2017-07-09T16:58:38.439Z,28.60
2017-07-09T17:01:06.768Z,28.40
2017-07-09T17:03:35.141Z,28.10
2017-07-09T17:06:03.466Z,28.00
2017-07-09T17:08:31.785Z,27.80
2017-07-09T17:11:00.124Z,27.80
2017-07-09T17:13:28.444Z,27.90
2017-07-09T17:15:56.788Z,27.90
2017-07-09T17:18:25.115Z,27.90
2017-07-09T17:20:53.469Z,28.00
2017-07-09T17:23:21.788Z,28.00
2017-07-09T17:25:50.133Z,27.90
2017-07-09T17:28:18.452Z,27.90
2017-07-09T17:30:46.778Z,28.00
2017-07-09T17:33:15.126Z,28.10
2017-07-09T17:35:43.517Z,28.20
2017-07-09T17:38:11.859Z,28.20
2017-07-09T17:40:40.184Z,28.50
2017-07-09T17:43:08.527Z,28.70
2017-07-09T17:45:36.932Z,28.90
2017-07-09T17:48:05.252Z,29.10
2017-07-09T17:50:33.609Z,29.20
2017-07-09T17:53:01.932Z,29.40
2017-07-09T17:55:30.272Z,29.50
2017-07-09T17:57:58.592Z,29.40
2017-07-09T18:00:26.932Z,29.30
2017-07-09T18:02:55.253Z,29.00
2017-07-09T18:05:23.601Z,28.70
2017-07-09T18:07:51.929Z,28.50
2017-07-09T18:10:20.254Z,28.30
2017-07-09T18:12:48.606Z,28.00
2017-07-09T18:15:16.931Z,27.70
2017-07-09T18:17:45.271Z,27.40
2017-07-09T18:20:13.589Z,27.10
2017-07-09T18:22:41.939Z,26.80
2017-07-09T18:25:10.257Z,26.50
2017-07-09T18:27:38.641Z,26.30
2017-07-09T18:30:06.958Z,26.30
2017-07-09T18:32:35.326Z,26.20
2017-07-09T18:35:03.707Z,26.20
2017-07-09T18:37:32.023Z,26.00
2017-07-09T18:40:00.363Z,25.90
2017-07-09T18:42:28.686Z,25.80
2017-07-09T18:44:57.087Z,25.70
2017-07-09T18:47:25.425Z,25.70
2017-07-09T18:49:53.772Z,25.70
2017-07-09T18:52:22.104Z,25.70
2017-07-09T18:54:50.432Z,25.60
2017-07-09T18:57:18.773Z,25.60
2017-07-09T18:59:47.150Z,25.60
2017-07-09T19:02:15.488Z,25.50
2017-07-09T19:04:43.805Z,25.40
2017-07-09T19:07:12.146Z,25.40
2017-07-09T19:09:40.466Z,25.30
2017-07-09T19:12:08.833Z,25.20
2017-07-09T19:14:37.146Z,25.10
2017-07-09T19:17:05.512Z,25.00
2017-07-09T19:19:33.859Z,25.00
2017-07-09T19:22:02.181Z,24.90
2017-07-09T19:24:30.519Z,24.90
2017-07-09T19:26:58.834Z,24.80
2017-07-09T19:29:27.184Z,24.80
2017-07-09T19:31:55.501Z,24.70
2017-07-09T19:34:23.836Z,24.60
2017-07-09T19:36:52.150Z,24.50
2017-07-09T19:39:19.750Z,24.50
2017-07-09T19:41:48.125Z,24.40
2017-07-09T19:44:16.440Z,24.40
2017-07-09T19:46:44.776Z,24.30
2017-07-09T19:49:13.091Z,24.20
2017-07-09T19:51:41.435Z,24.20
2017-07-09T19:54:09.764Z,24.20
2017-07-09T19:56:38.106Z,24.20
2017-07-09T19:59:06.423Z,24.10
2017-07-09T20:01:34.752Z,24.00
2017-07-09T20:04:03.064Z,24.00
2017-07-09T20:06:31.398Z,23.90
2017-07-09T20:08:59.704Z,23.80
2017-07-09T20:11:28.049Z,23.80
2017-07-09T20:13:56.375Z,23.80
2017-07-09T20:16:24.747Z,23.80
2017-07-09T20:18:53.093Z,23.70
2017-07-09T20:21:21.414Z,23.70
2017-07-09T20:23:49.764Z,23.60
2017-07-09T20:26:18.073Z,23.60
2017-07-09T20:28:46.414Z,23.50
2017-07-09T20:31:14.813Z,23.50
2017-07-09T20:33:42.408Z,23.50
2017-07-09T20:36:10.719Z,23.30
2017-07-09T20:38:39.032Z,23.00
2017-07-09T20:41:07.364Z,22.70
2017-07-09T20:43:35.677Z,22.30
2017-07-09T20:46:04.036Z,22.00
2017-07-09T20:48:33.001Z,21.70
2017-07-09T20:51:01.404Z,21.40
2017-07-09T20:53:29.715Z,21.20
2017-07-09T20:55:58.143Z,21.00
2017-07-09T20:58:26.460Z,20.80
2017-07-09T21:00:54.808Z,20.70
2017-07-09T21:03:23.127Z,20.60
2017-07-09T21:05:51.445Z,20.50
2017-07-09T21:08:19.785Z,20.40
2017-07-09T21:10:48.105Z,20.30
2017-07-09T21:13:16.449Z,20.20
2017-07-09T21:15:44.768Z,20.20
2017-07-09T21:18:13.125Z,20.10
2017-07-09T21:20:41.468Z,20.10
2017-07-09T21:23:09.783Z,20.00
2017-07-09T21:25:38.136Z,20.00
2017-07-09T21:28:06.560Z,19.90
2017-07-09T21:30:34.904Z,19.90
2017-07-09T21:33:03.218Z,19.80
2017-07-09T21:35:31.549Z,19.80
2017-07-09T21:37:59.864Z,19.80
2017-07-09T21:40:28.231Z,19.80
2017-07-09T21:42:55.789Z,19.80
2017-07-09T21:45:24.117Z,19.80
2017-07-09T21:47:52.464Z,19.80
2017-07-09T21:50:20.817Z,19.80
2017-07-09T21:52:49.173Z,19.80
2017-07-09T21:55:16.744Z,19.70
2017-07-09T21:57:45.104Z,19.60
2017-07-09T22:00:13.681Z,19.50
2017-07-09T22:02:42.457Z,19.50
2017-07-09T22:05:10.784Z,19.40
2017-07-09T22:07:39.117Z,19.40
2017-07-09T22:10:07.474Z,19.40
2017-07-09T22:12:35.797Z,19.40
2017-07-09T22:15:04.182Z,19.40
2017-07-09T22:17:32.509Z,19.50
2017-07-09T22:20:00.917Z,19.50
2017-07-09T22:22:29.271Z,19.50
2017-07-09T22:24:57.609Z,19.40
2017-07-09T22:27:26.019Z,19.40
2017-07-09T22:29:54.357Z,19.30
2017-07-09T22:32:22.679Z,19.20
2017-07-09T22:34:50.998Z,19.20
2017-07-09T22:37:19.345Z,19.20
2017-07-09T22:39:47.661Z,19.10
2017-07-09T22:42:15.994Z,19.00
2017-07-09T22:44:44.316Z,18.90
2017-07-09T22:47:12.657Z,18.90
2017-07-09T22:49:40.974Z,18.80
2017-07-09T22:52:09.319Z,18.80
2017-07-09T22:54:37.639Z,18.70
2017-07-09T22:57:05.962Z,18.70
2017-07-09T22:59:34.301Z,18.70
2017-07-09T23:02:02.619Z,18.70
2017-07-09T23:04:30.956Z,18.70
2017-07-09T23:06:59.276Z,18.60
2017-07-09T23:09:27.613Z,18.50
2017-07-09T23:11:55.928Z,18.60
2017-07-09T23:14:24.261Z,18.60
2017-07-09T23:16:52.576Z,18.70
2017-07-09T23:19:20.929Z,18.60
2017-07-09T23:21:49.249Z,18.60
2017-07-09T23:24:16.835Z,18.60
2017-07-09T23:26:45.152Z,18.60
2017-07-09T23:29:13.541Z,18.60
2017-07-09T23:31:41.993Z,18.60
2017-07-09T23:34:10.338Z,18.60
2017-07-09T23:36:38.658Z,18.60
2017-07-09T23:39:07.008Z,18.60
2017-07-09T23:41:35.332Z,18.60
2017-07-09T23:44:03.657Z,18.60
2017-07-09T23:46:32.000Z,18.60
2017-07-09T23:49:00.324Z,18.60
2017-07-09T23:51:28.665Z,18.60
2017-07-09T23:53:56.996Z,18.50
2017-07-09T23:56:25.332Z,18.50
2017-07-09T23:58:53.656Z,18.40
